Time;durP1;ratioP1;P1;durP2;ratioP2;P2;SDS_P1;SDS_P2;PMS_P1;PMS_P2;Temp;Humidity;BMP_temperature;BMP_pressure;BME280_temperature;BME280_humidity;BME280_pressure;Samples;Min_cycle;Max_cycle;Signal;HPM_P1;HPM_P2
2023/10/12 00:05:06;;;;;;;5.87;4.47;;;17.50;32.70;;;;;;10350149;28;20218;-75
2023/10/12 00:10:21;;;;;;;5.40;3.70;;;17.50;32.70;;;;;;10354945;28;20253;-76
2023/10/12 00:15:25;;;;;;;6.23;4.00;;;17.40;33.20;;;;;;10356064;28;20256;-75
2023/10/12 00:20:35;;;;;;;6.33;3.90;;;17.40;33.10;;;;;;10352509;28;20249;-76
2023/10/12 00:25:47;;;;;;;4.97;3.70;;;17.30;33.20;;;;;;10357198;28;20276;-75
2023/10/12 00:30:54;;;;;;;6.53;3.53;;;17.30;34.10;;;;;;10384376;28;20261;-76
2023/10/12 00:36:01;;;;;;;6.10;3.83;;;17.30;34.10;;;;;;10364920;28;20233;-76
2023/10/12 00:41:14;;;;;;;7.27;3.67;;;17.30;34.00;;;;;;10381976;28;20226;-76
2023/10/12 00:46:21;;;;;;;7.03;3.73;;;17.40;34.20;;;;;;10392546;28;20221;-76
2023/10/12 00:51:26;;;;;;;5.30;3.63;;;17.50;34.00;;;;;;10386556;28;20234;-76
2023/10/12 00:56:36;;;;;;;6.13;3.87;;;17.50;33.60;;;;;;10392048;28;20244;-76
2023/10/12 01:01:39;;;;;;;4.93;3.67;;;17.50;33.80;;;;;;10388621;28;20249;-76
2023/10/12 01:06:44;;;;;;;4.23;3.83;;;17.60;33.60;;;;;;10361298;28;20725;-75
2023/10/12 01:11:59;;;;;;;6.47;3.90;;;17.60;33.60;;;;;;10351256;28;20648;-76
2023/10/12 01:17:08;;;;;;;7.30;4.17;;;17.50;34.30;;;;;;10355444;28;20265;-76
2023/10/12 01:22:13;;;;;;;5.13;3.87;;;17.50;33.30;;;;;;10354124;28;20327;-75
2023/10/12 01:27:16;;;;;;;4.80;3.70;;;17.50;33.70;;;;;;10351864;28;21365;-76
2023/10/12 01:32:27;;;;;;;6.93;4.10;;;17.50;33.40;;;;;;10353578;28;20233;-78
2023/10/12 01:37:47;;;;;;;5.43;3.80;;;17.40;33.50;;;;;;10345975;28;20667;-78
2023/10/12 01:42:56;;;;;;;5.73;3.73;;;17.40;34.10;;;;;;10385970;28;20238;-76
2023/10/12 01:48:07;;;;;;;5.37;3.80;;;17.20;33.80;;;;;;10381564;28;20233;-76
2023/10/12 01:53:24;;;;;;;7.90;3.70;;;17.10;34.00;;;;;;10355445;28;20222;-76
2023/10/12 01:58:28;;;;;;;6.27;4.03;;;17.00;33.90;;;;;;10347897;28;20230;-76
2023/10/12 02:03:33;;;;;;;4.63;3.87;;;17.00;33.90;;;;;;10355873;28;20233;-75
2023/10/12 02:08:45;;;;;;;5.47;3.80;;;17.00;33.90;;;;;;10352287;28;20286;-76
2023/10/12 02:13:50;;;;;;;4.87;4.03;;;17.00;33.90;;;;;;10368457;28;20229;-78
2023/10/12 02:18:54;;;;;;;5.03;4.10;;;17.00;33.90;;;;;;10397123;28;20303;-77
2023/10/12 02:24:12;;;;;;;7.33;3.83;;;16.90;33.80;;;;;;10394084;28;20237;-77
2023/10/12 02:29:18;;;;;;;5.97;4.40;;;16.80;33.70;;;;;;10382559;28;20228;-77
2023/10/12 02:34:25;;;;;;;5.37;4.00;;;16.80;33.70;;;;;;10388832;28;20222;-78
2023/10/12 02:39:31;;;;;;;5.17;3.83;;;16.70;34.10;;;;;;10396228;28;20236;-76
2023/10/12 02:44:34;;;;;;;5.77;4.10;;;16.60;34.50;;;;;;10393768;28;20230;-75
2023/10/12 02:49:39;;;;;;;7.47;4.00;;;16.50;34.30;;;;;;10387188;28;20230;-76
2023/10/12 02:54:49;;;;;;;4.30;3.90;;;16.40;34.40;;;;;;10391193;28;20735;-76
2023/10/12 02:59:58;;;;;;;5.47;3.73;;;16.40;34.90;;;;;;10385360;28;20320;-76
2023/10/12 03:05:06;;;;;;;5.67;4.23;;;16.30;34.90;;;;;;10353584;28;20230;-76
2023/10/12 03:10:24;;;;;;;5.83;4.10;;;16.30;34.80;;;;;;10354418;28;20233;-76
2023/10/12 03:15:40;;;;;;;5.03;4.17;;;16.20;35.20;;;;;;10349546;28;20223;-76
2023/10/12 03:21:02;;;;;;;4.97;3.80;;;16.10;34.90;;;;;;10353718;28;20874;-76
2023/10/12 03:26:17;;;;;;;6.43;4.03;;;16.00;35.00;;;;;;10365809;28;20234;-76
2023/10/12 03:31:23;;;;;;;6.23;3.73;;;16.00;35.60;;;;;;10347674;28;20331;-76
2023/10/12 03:36:32;;;;;;;6.13;4.50;;;16.00;35.60;;;;;;10341688;28;20317;-75
2023/10/12 03:41:54;;;;;;;5.53;3.87;;;15.90;36.80;;;;;;10356627;28;20230;-76
2023/10/12 03:47:00;;;;;;;7.07;4.33;;;15.90;37.50;;;;;;10353380;28;20256;-76
2023/10/12 03:52:13;;;;;;;8.57;4.03;;;16.10;37.70;;;;;;10355387;28;20833;-75
2023/10/12 03:57:20;;;;;;;6.77;4.10;;;16.30;38.20;;;;;;10359199;28;20267;-76
2023/10/12 04:02:24;;;;;;;8.37;4.53;;;16.60;38.40;;;;;;10346568;28;20254;-77
2023/10/12 04:07:39;;;;;;;5.67;4.17;;;16.80;38.10;;;;;;10364288;28;20237;-76
2023/10/12 04:12:53;;;;;;;5.53;4.13;;;17.00;38.00;;;;;;10393470;28;20247;-75
2023/10/12 04:18:06;;;;;;;7.17;4.00;;;17.20;38.20;;;;;;10400297;28;20826;-75
2023/10/12 04:28:38;;;;;;;8.40;3.93;;;17.50;37.70;;;;;;10335533;28;20314;-76
2023/10/12 04:33:50;;;;;;;5.90;3.37;;;17.60;37.70;;;;;;10345497;28;20238;-74
2023/10/12 04:39:03;;;;;;;5.93;4.50;;;17.70;37.30;;;;;;10345274;28;20309;-75
2023/10/12 04:49:53;;;;;;;5.80;4.33;;;17.90;37.00;;;;;;10358859;28;20319;-75
2023/10/12 04:55:06;;;;;;;6.70;4.30;;;17.90;36.50;;;;;;10351588;28;20230;-76
2023/10/12 05:00:16;;;;;;;6.67;3.50;;;17.80;36.10;;;;;;10350198;28;20219;-76
2023/10/12 05:10:50;;;;;;;5.53;3.93;;;17.70;36.40;;;;;;10349926;28;20234;-76
2023/10/12 05:16:04;;;;;;;6.47;4.33;;;17.60;36.20;;;;;;10349256;28;20727;-76
2023/10/12 05:21:10;;;;;;;5.60;4.23;;;17.50;36.60;;;;;;10344649;28;20222;-75
2023/10/12 05:26:14;;;;;;;7.00;4.20;;;17.40;36.20;;;;;;10343139;28;20656;-75
2023/10/12 05:31:20;;;;;;;6.97;4.07;;;17.30;36.50;;;;;;10350312;28;20230;-75
2023/10/12 05:36:28;;;;;;;4.07;3.63;;;17.30;37.10;;;;;;10357549;28;20226;-75
2023/10/12 05:41:34;;;;;;;5.53;3.87;;;17.50;37.40;;;;;;10344111;28;20236;-75
2023/10/12 05:46:40;;;;;;;6.00;3.57;;;17.80;37.50;;;;;;10353183;28;20234;-75
2023/10/12 05:51:44;;;;;;;5.23;3.40;;;18.10;37.40;;;;;;10351171;28;20233;-75
2023/10/12 05:56:50;;;;;;;5.93;3.30;;;18.60;37.00;;;;;;10398791;28;20222;-75
2023/10/12 06:01:55;;;;;;;5.63;3.60;;;19.00;36.60;;;;;;10396897;28;20222;-75
2023/10/12 06:07:00;;;;;;;6.73;3.60;;;19.30;35.90;;;;;;10394471;28;20225;-75
2023/10/12 06:12:06;;;;;;;4.63;3.47;;;19.60;36.20;;;;;;10352152;28;20222;-75
2023/10/12 06:17:27;;;;;;;6.70;3.43;;;19.80;35.70;;;;;;10357007;28;20226;-75
2023/10/12 06:22:33;;;;;;;5.20;3.67;;;20.00;35.30;;;;;;10347131;28;20249;-75
2023/10/12 06:27:37;;;;;;;5.47;3.60;;;20.10;35.00;;;;;;10370696;28;20766;-75
2023/10/12 06:32:42;;;;;;;6.53;3.63;;;20.20;35.00;;;;;;10379733;28;20225;-74
2023/10/12 06:38:15;;;;;;;10.57;4.47;;;20.40;34.70;;;;;;10382115;28;20253;-75
2023/10/12 06:48:58;;;;;;;3.60;3.23;;;20.20;34.40;;;;;;10290604;28;20312;-74
2023/10/12 06:54:17;;;;;;;4.67;3.13;;;20.00;34.50;;;;;;10389980;28;20273;-75
2023/10/12 06:59:35;;;;;;;5.57;3.63;;;19.90;34.80;;;;;;10370851;28;20333;-75
2023/10/12 07:04:53;;;;;;;5.93;3.77;;;19.80;34.90;;;;;;10383749;28;20221;-75
2023/10/12 07:10:13;;;;;;;6.70;4.13;;;19.70;35.90;;;;;;10388402;28;20226;-76
2023/10/12 07:15:20;;;;;;;8.50;4.00;;;19.70;36.00;;;;;;10350569;28;20304;-75
2023/10/12 07:20:27;;;;;;;7.13;3.90;;;19.70;36.20;;;;;;10364205;28;20226;-75
2023/10/12 07:25:35;;;;;;;4.20;3.37;;;19.70;36.20;;;;;;10359526;28;20275;-75
2023/10/12 07:30:42;;;;;;;9.10;4.27;;;19.70;36.20;;;;;;10357947;28;20392;-75
2023/10/12 07:35:53;;;;;;;5.13;3.73;;;19.70;36.20;;;;;;10389380;28;20280;-76
2023/10/12 07:41:00;;;;;;;8.63;3.83;;;19.70;36.20;;;;;;10377284;28;20226;-75
2023/10/12 07:46:12;;;;;;;8.17;3.90;;;19.80;36.50;;;;;;10379201;28;20688;-75
2023/10/12 07:51:24;;;;;;;6.00;3.43;;;20.00;36.50;;;;;;10387231;28;20229;-76
2023/10/12 07:56:33;;;;;;;6.13;3.03;;;20.20;36.60;;;;;;10383318;28;20240;-75
2023/10/12 08:01:47;;;;;;;4.80;3.37;;;20.60;36.90;;;;;;10378642;28;20233;-76
2023/10/12 08:06:52;;;;;;;4.10;3.00;;;21.00;36.20;;;;;;10402305;28;20229;-76
2023/10/12 08:11:56;;;;;;;5.63;3.17;;;21.30;35.10;;;;;;10387350;28;20292;-76
2023/10/12 08:22:26;;;;;;;3.67;3.37;;;21.90;34.60;;;;;;10357321;28;20217;-75
2023/10/12 08:27:39;;;;;;;6.40;3.23;;;22.10;33.90;;;;;;10377591;28;20233;-75
2023/10/12 08:32:55;;;;;;;5.80;3.13;;;22.30;34.00;;;;;;10372807;28;20225;-74
2023/10/12 08:38:25;;;;;;;4.93;2.83;;;22.50;33.90;;;;;;10357643;28;21939;-74
2023/10/12 08:43:45;;;;;;;6.37;3.10;;;22.50;33.30;;;;;;10350539;28;20222;-77
2023/10/12 08:48:55;;;;;;;4.10;3.23;;;22.70;33.40;;;;;;10353242;28;20226;-78
2023/10/12 08:54:07;;;;;;;3.77;3.30;;;22.70;33.10;;;;;;10359195;28;20226;-77
2023/10/12 08:59:10;;;;;;;4.43;2.97;;;22.80;32.40;;;;;;10383619;28;20229;-77
2023/10/12 09:04:14;;;;;;;4.60;3.03;;;22.90;33.40;;;;;;10374502;28;20223;-77
2023/10/12 09:14:43;;;;;;;5.87;3.60;;;23.10;32.70;;;;;;10372307;28;20623;-77
2023/10/12 09:19:48;;;;;;;8.37;3.63;;;23.20;32.70;;;;;;10382484;28;20232;-77
2023/10/12 09:24:53;;;;;;;4.90;3.30;;;23.40;32.50;;;;;;10354059;28;20618;-75
2023/10/12 09:29:58;;;;;;;5.87;3.17;;;23.50;31.90;;;;;;10345850;28;20296;-77
2023/10/12 09:35:10;;;;;;;3.83;3.30;;;23.60;32.20;;;;;;10339199;28;20628;-77
2023/10/12 09:40:34;;;;;;;4.73;3.27;;;23.60;31.80;;;;;;10350678;28;20233;-76
2023/10/12 09:45:41;;;;;;;4.80;3.33;;;23.70;31.50;;;;;;10350795;28;20222;-74
2023/10/12 09:50:48;;;;;;;4.90;3.43;;;23.80;31.60;;;;;;10387510;28;20738;-74
2023/10/12 09:56:10;;;;;;;5.17;3.50;;;23.80;31.30;;;;;;10382663;28;20248;-74
2023/10/12 10:01:21;;;;;;;6.20;3.30;;;23.90;30.60;;;;;;10386402;28;20684;-73
2023/10/12 10:06:37;;;;;;;5.63;3.63;;;23.90;31.40;;;;;;10388403;28;20309;-74
2023/10/12 10:11:42;;;;;;;4.33;3.20;;;24.00;30.70;;;;;;10364172;28;20223;-74
2023/10/12 10:16:47;;;;;;;7.03;3.37;;;24.10;31.10;;;;;;10361817;28;20317;-74
2023/10/12 10:22:03;;;;;;;4.00;3.30;;;24.20;31.10;;;;;;10351796;28;20756;-77
2023/10/12 10:27:12;;;;;;;6.33;3.87;;;24.30;30.80;;;;;;10348814;28;20240;-78
2023/10/12 10:32:16;;;;;;;5.13;3.03;;;24.40;29.90;;;;;;10337048;28;20233;-77
2023/10/12 10:37:39;;;;;;;3.93;3.43;;;24.50;30.70;;;;;;10387339;28;20686;-77
2023/10/12 10:43:00;;;;;;;8.37;3.67;;;24.50;29.70;;;;;;10378015;28;20372;-78
2023/10/12 10:48:04;;;;;;;3.90;3.23;;;24.70;29.90;;;;;;10353487;28;20276;-77
2023/10/12 10:53:31;;;;;;;6.03;3.30;;;24.70;30.20;;;;;;10352206;28;20231;-74
2023/10/12 10:58:37;;;;;;;4.70;3.30;;;24.80;30.20;;;;;;10347674;28;20252;-74
2023/10/12 11:03:40;;;;;;;5.60;3.80;;;24.90;30.00;;;;;;10350011;28;20222;-73
2023/10/12 11:08:53;;;;;;;5.87;4.13;;;25.00;30.00;;;;;;10355076;28;20240;-76
2023/10/12 11:13:59;;;;;;;5.40;3.77;;;25.10;28.80;;;;;;10357096;28;20378;-74
2023/10/12 11:19:03;;;;;;;5.40;3.30;;;25.20;28.80;;;;;;10345485;28;20760;-75
2023/10/12 11:24:09;;;;;;;5.80;3.90;;;25.20;29.50;;;;;;10370134;28;20226;-74
2023/10/12 11:29:14;;;;;;;4.37;3.70;;;25.30;28.90;;;;;;10368177;28;20253;-75
2023/10/12 11:34:23;;;;;;;4.23;3.77;;;25.30;28.80;;;;;;10357663;28;20238;-74
2023/10/12 11:39:28;;;;;;;3.50;3.20;;;25.40;28.90;;;;;;10367473;28;20229;-73
2023/10/12 11:44:35;;;;;;;5.67;3.37;;;25.40;28.90;;;;;;10376463;28;20781;-76
2023/10/12 11:49:55;;;;;;;4.80;3.53;;;25.40;28.90;;;;;;10398593;28;20233;-76
2023/10/12 11:55:06;;;;;;;5.50;3.93;;;25.50;28.70;;;;;;10399918;28;20268;-77
2023/10/12 12:00:21;;;;;;;5.93;3.53;;;25.50;28.90;;;;;;10387254;28;20230;-75
2023/10/12 12:05:26;;;;;;;4.47;3.37;;;25.50;28.90;;;;;;10385471;28;20230;-74
2023/10/12 12:10:44;;;;;;;6.07;3.30;;;25.50;28.90;;;;;;10376253;28;20720;-74
2023/10/12 12:15:50;;;;;;;5.77;3.57;;;25.50;28.90;;;;;;10372763;28;20218;-74
2023/10/12 12:20:57;;;;;;;4.83;3.60;;;25.60;29.00;;;;;;10364592;28;20226;-74
2023/10/12 12:26:07;;;;;;;4.40;3.57;;;25.60;29.00;;;;;;10389386;28;20722;-73
2023/10/12 12:31:15;;;;;;;5.17;3.63;;;25.50;29.00;;;;;;10391094;28;20716;-74
2023/10/12 12:36:22;;;;;;;4.83;3.33;;;25.60;29.00;;;;;;10390028;28;20253;-73
2023/10/12 12:41:25;;;;;;;5.00;3.47;;;25.60;29.00;;;;;;10395952;28;20336;-72
2023/10/12 12:46:30;;;;;;;4.87;3.63;;;25.70;29.00;;;;;;10388311;28;20328;-77
2023/10/12 12:51:34;;;;;;;10.83;3.87;;;25.70;29.10;;;;;;10354065;28;20230;-77
2023/10/12 12:56:38;;;;;;;5.80;4.30;;;25.70;29.00;;;;;;10348661;28;20255;-77
2023/10/12 13:01:45;;;;;;;8.23;3.80;;;25.60;29.00;;;;;;10390033;28;20239;-72
2023/10/12 13:06:51;;;;;;;4.03;3.60;;;25.70;29.00;;;;;;10398862;28;20217;-73
2023/10/12 13:12:08;;;;;;;5.40;3.70;;;25.60;29.00;;;;;;10358031;28;20245;-74
2023/10/12 13:17:13;;;;;;;5.37;3.57;;;25.70;29.00;;;;;;10349918;28;20245;-74
2023/10/12 13:22:17;;;;;;;3.10;2.80;;;25.70;29.00;;;;;;10371322;28;20229;-74
2023/10/12 13:27:22;;;;;;;5.20;3.70;;;25.70;29.00;;;;;;10391734;28;20226;-75
2023/10/12 13:32:27;;;;;;;5.63;3.60;;;25.70;29.00;;;;;;10346530;28;20612;-75
2023/10/12 13:37:31;;;;;;;7.27;3.50;;;25.60;28.70;;;;;;10349485;28;20226;-74
2023/10/12 13:42:35;;;;;;;5.77;3.40;;;25.60;29.00;;;;;;10362936;28;20226;-74
2023/10/12 13:47:40;;;;;;;4.90;3.50;;;25.60;29.00;;;;;;10388492;28;20229;-77
2023/10/12 13:52:43;;;;;;;8.07;3.53;;;25.60;29.00;;;;;;10380381;28;20233;-77
2023/10/12 13:57:55;;;;;;;10.03;3.83;;;25.60;29.00;;;;;;10366237;28;20234;-74
2023/10/12 14:03:10;;;;;;;5.77;3.37;;;25.60;29.10;;;;;;10382895;28;20758;-77
2023/10/12 14:08:14;;;;;;;5.03;4.10;;;25.60;29.20;;;;;;10383626;28;20228;-75
2023/10/12 14:13:17;;;;;;;9.03;4.13;;;25.60;29.20;;;;;;10383880;28;20305;-75
2023/10/12 14:18:22;;;;;;;4.60;4.03;;;25.50;29.60;;;;;;10398346;28;20251;-74
2023/10/12 14:23:26;;;;;;;6.37;3.77;;;25.50;29.70;;;;;;10398059;28;20236;-76
2023/10/12 14:28:34;;;;;;;6.83;3.73;;;25.50;29.50;;;;;;10389969;28;20233;-77
2023/10/12 14:33:39;;;;;;;6.50;4.13;;;25.40;29.50;;;;;;10382540;28;20238;-78
2023/10/12 14:38:44;;;;;;;7.40;4.07;;;25.40;29.80;;;;;;10386804;28;20232;-75
2023/10/12 14:43:48;;;;;;;7.77;3.80;;;25.40;29.70;;;;;;10379713;28;20272;-75
2023/10/12 14:48:53;;;;;;;6.20;3.50;;;25.30;29.70;;;;;;10389498;28;20812;-75
2023/10/12 14:53:57;;;;;;;6.90;3.90;;;25.30;29.80;;;;;;10387367;28;20228;-74
2023/10/12 14:59:00;;;;;;;4.63;3.73;;;25.30;29.90;;;;;;10393551;28;20321;-75
2023/10/12 15:04:07;;;;;;;6.23;3.90;;;25.20;29.80;;;;;;10384509;28;20719;-75
2023/10/12 15:09:12;;;;;;;8.07;4.10;;;25.20;30.00;;;;;;10392548;28;20233;-75
2023/10/12 15:14:16;;;;;;;6.33;3.83;;;25.10;29.90;;;;;;10404440;28;20222;-75
2023/10/12 15:19:21;;;;;;;6.70;3.70;;;25.10;30.00;;;;;;10392027;28;20308;-76
2023/10/12 15:24:26;;;;;;;5.73;3.80;;;24.90;30.30;;;;;;10396400;28;20349;-75
2023/10/12 15:29:29;;;;;;;5.37;3.97;;;24.90;30.80;;;;;;10378779;28;20257;-75
2023/10/12 15:34:34;;;;;;;8.10;4.33;;;24.90;31.00;;;;;;10348604;28;21088;-75
2023/10/12 15:39:38;;;;;;;4.77;3.80;;;24.80;31.00;;;;;;10392434;28;20230;-75
2023/10/12 15:44:41;;;;;;;8.97;4.00;;;24.70;31.10;;;;;;10394068;28;20226;-77
2023/10/12 15:49:45;;;;;;;6.10;3.90;;;24.70;31.30;;;;;;10399742;28;20708;-77
2023/10/12 15:54:48;;;;;;;5.53;4.07;;;24.70;31.60;;;;;;10384052;28;20225;-77
2023/10/12 15:59:54;;;;;;;5.27;4.20;;;24.60;31.30;;;;;;10385204;28;20229;-78
2023/10/12 16:04:59;;;;;;;9.10;4.27;;;24.50;31.50;;;;;;10388925;28;20307;-77
2023/10/12 16:10:07;;;;;;;5.27;4.27;;;24.40;31.90;;;;;;10354988;28;20233;-76
2023/10/12 16:15:12;;;;;;;7.37;5.23;;;24.30;32.00;;;;;;10345873;28;20247;-76
2023/10/12 16:20:17;;;;;;;7.87;5.37;;;24.30;32.00;;;;;;10350954;28;20322;-76
2023/10/12 16:25:21;;;;;;;10.57;6.30;;;24.20;32.30;;;;;;10350505;28;20523;-77
2023/10/12 16:30:25;;;;;;;8.67;6.00;;;24.10;32.20;;;;;;10351456;28;20238;-77
2023/10/12 16:35:30;;;;;;;7.63;5.70;;;24.00;32.40;;;;;;10345111;28;20222;-76
2023/10/12 16:40:33;;;;;;;6.10;5.20;;;23.90;32.60;;;;;;10392824;28;20245;-77
2023/10/12 16:45:37;;;;;;;7.57;5.33;;;23.70;32.40;;;;;;10382490;28;20218;-77
2023/10/12 16:50:41;;;;;;;7.30;5.30;;;23.60;32.90;;;;;;10355731;28;20703;-77
2023/10/12 16:55:45;;;;;;;7.23;5.27;;;23.50;33.40;;;;;;10350342;28;20234;-76
2023/10/12 17:00:54;;;;;;;7.57;6.13;;;23.50;33.20;;;;;;10361719;28;20613;-77
2023/10/12 17:06:00;;;;;;;8.87;7.70;;;23.50;34.00;;;;;;10354356;28;20215;-76
2023/10/12 17:11:05;;;;;;;8.73;6.67;;;23.30;33.60;;;;;;10350077;28;20218;-76
2023/10/12 17:16:08;;;;;;;6.77;6.07;;;23.20;33.30;;;;;;10351094;28;20317;-76
2023/10/12 17:21:16;;;;;;;7.93;5.90;;;23.20;33.40;;;;;;10346001;28;20725;-77
2023/10/12 17:26:19;;;;;;;7.33;6.10;;;23.00;33.70;;;;;;10352381;28;20218;-76
2023/10/12 17:31:26;;;;;;;6.70;6.03;;;23.00;33.70;;;;;;10366336;28;20697;-77
2023/10/12 17:36:32;;;;;;;7.27;5.47;;;22.90;33.60;;;;;;10387951;28;20230;-77
2023/10/12 17:41:35;;;;;;;7.83;5.90;;;22.90;34.20;;;;;;10370878;28;20240;-77
2023/10/12 17:46:38;;;;;;;6.93;5.93;;;22.80;33.90;;;;;;10358891;28;20308;-76
2023/10/12 17:51:44;;;;;;;10.13;8.83;;;22.70;33.90;;;;;;10339194;28;20249;-77
2023/10/12 17:56:48;;;;;;;14.60;12.80;;;22.60;34.40;;;;;;10370232;28;20237;-76
2023/10/12 18:01:54;;;;;;;12.87;10.00;;;22.50;34.20;;;;;;10348172;28;20284;-76
2023/10/12 18:07:00;;;;;;;12.17;7.63;;;22.30;34.30;;;;;;10345457;28;20232;-77
2023/10/12 18:12:05;;;;;;;9.50;7.27;;;22.20;34.90;;;;;;10350645;28;20253;-77
2023/10/12 18:17:09;;;;;;;7.70;6.17;;;22.10;34.90;;;;;;10356369;28;20222;-77
2023/10/12 18:22:16;;;;;;;6.27;5.67;;;22.10;35.10;;;;;;10388241;28;20218;-78
2023/10/12 18:27:20;;;;;;;7.63;5.57;;;22.10;35.50;;;;;;10383992;28;20243;-77
2023/10/12 18:32:23;;;;;;;5.73;4.97;;;22.10;35.20;;;;;;10374691;28;20233;-78
2023/10/12 18:37:29;;;;;;;8.77;5.10;;;22.10;35.20;;;;;;10345601;28;20740;-78
2023/10/12 18:42:34;;;;;;;7.40;5.90;;;22.00;35.90;;;;;;10360243;28;20649;-79
2023/10/12 18:47:37;;;;;;;8.60;5.97;;;22.00;35.40;;;;;;10353103;28;20357;-77
2023/10/12 18:52:42;;;;;;;7.97;5.70;;;21.90;35.50;;;;;;10350047;28;21570;-77
2023/10/12 18:57:46;;;;;;;8.53;5.87;;;21.80;36.20;;;;;;10361857;28;20233;-77
2023/10/12 19:02:49;;;;;;;8.40;6.07;;;21.70;35.90;;;;;;10350897;28;20312;-75
2023/10/12 19:07:55;;;;;;;9.20;5.87;;;21.60;36.10;;;;;;10366248;28;20236;-76
2023/10/12 19:12:58;;;;;;;7.37;6.03;;;21.60;36.70;;;;;;10371862;28;20323;-76
2023/10/12 19:18:16;;;;;;;7.47;5.97;;;21.60;36.20;;;;;;10380697;28;20222;-77
2023/10/12 19:23:22;;;;;;;8.40;6.07;;;21.70;36.60;;;;;;10391470;28;20222;-77
2023/10/12 19:28:26;;;;;;;10.23;6.33;;;21.70;36.80;;;;;;10364711;28;20244;-77
2023/10/12 19:33:32;;;;;;;7.47;5.20;;;21.70;36.60;;;;;;10345542;28;20234;-77
2023/10/12 19:38:38;;;;;;;10.63;5.67;;;21.70;36.30;;;;;;10358871;28;20317;-78
2023/10/12 19:43:46;;;;;;;8.70;5.20;;;21.70;37.00;;;;;;10355434;28;20344;-77
2023/10/12 19:48:49;;;;;;;7.27;5.70;;;21.70;36.40;;;;;;10353079;28;20947;-78
2023/10/12 19:53:55;;;;;;;11.07;6.00;;;21.70;36.30;;;;;;10337720;28;20240;-76
2023/10/12 19:59:02;;;;;;;10.13;5.97;;;21.70;36.80;;;;;;10338288;28;20313;-76
2023/10/12 20:04:07;;;;;;;6.83;5.53;;;21.80;36.60;;;;;;10367467;28;20928;-76
2023/10/12 20:09:13;;;;;;;8.27;5.67;;;21.80;36.50;;;;;;10379314;28;20569;-77
2023/10/12 20:14:17;;;;;;;8.97;5.90;;;21.80;37.00;;;;;;10383860;28;20227;-76
2023/10/12 20:19:24;;;;;;;6.50;5.80;;;21.80;36.50;;;;;;10388820;28;20321;-77
2023/10/12 20:24:32;;;;;;;6.77;4.70;;;21.80;36.50;;;;;;10400833;28;20230;-76
2023/10/12 20:29:39;;;;;;;5.77;4.63;;;21.70;35.60;;;;;;10391886;28;20230;-76
2023/10/12 20:34:42;;;;;;;7.17;4.60;;;21.70;35.30;;;;;;10390262;28;20768;-76
2023/10/12 20:39:48;;;;;;;8.13;4.87;;;21.70;35.30;;;;;;10397426;28;20234;-76
2023/10/12 20:44:51;;;;;;;9.60;5.07;;;21.80;35.80;;;;;;10388457;28;20347;-76
2023/10/12 20:49:56;;;;;;;4.70;4.20;;;21.80;35.50;;;;;;10392925;28;20316;-76
2023/10/12 20:55:01;;;;;;;5.90;4.27;;;21.80;34.60;;;;;;10394092;28;20332;-77
2023/10/12 21:00:05;;;;;;;5.73;4.40;;;21.90;35.00;;;;;;10364302;28;20768;-76
2023/10/12 21:05:10;;;;;;;7.40;4.23;;;22.00;34.80;;;;;;10360767;28;20234;-76
2023/10/12 21:10:15;;;;;;;8.20;4.87;;;22.00;34.70;;;;;;10363869;28;20230;-77
2023/10/12 21:15:20;;;;;;;7.43;5.00;;;22.00;34.60;;;;;;10359941;28;20246;-77
2023/10/12 21:20:37;;;;;;;6.60;4.83;;;21.90;34.60;;;;;;10354007;28;20350;-76
2023/10/12 21:25:45;;;;;;;6.67;4.90;;;22.00;34.80;;;;;;10364604;28;20332;-76
2023/10/12 21:30:50;;;;;;;6.43;5.60;;;22.00;34.90;;;;;;10369061;28;20715;-76
2023/10/12 21:35:56;;;;;;;7.33;5.57;;;22.00;35.00;;;;;;10392401;28;20332;-76
2023/10/12 21:41:05;;;;;;;7.50;5.10;;;21.90;35.10;;;;;;10366316;28;20233;-75
2023/10/12 21:46:12;;;;;;;6.93;5.27;;;21.90;35.50;;;;;;10351771;28;20234;-77
2023/10/12 21:51:15;;;;;;;8.67;5.00;;;21.90;35.80;;;;;;10347747;28;20736;-77
2023/10/12 21:56:20;;;;;;;6.17;5.57;;;21.90;35.30;;;;;;10348535;28;20239;-77
2023/10/12 22:01:35;;;;;;;7.33;4.93;;;21.80;35.70;;;;;;10348996;28;20234;-77
2023/10/12 22:06:41;;;;;;;5.80;5.07;;;21.70;35.60;;;;;;10348414;28;20317;-76
2023/10/12 22:11:46;;;;;;;7.20;5.83;;;21.70;35.80;;;;;;10352591;28;20230;-76
2023/10/12 22:16:50;;;;;;;7.47;5.40;;;21.70;36.00;;;;;;10352458;28;20237;-76
2023/10/12 22:21:54;;;;;;;8.60;5.53;;;21.50;35.70;;;;;;10353611;28;20610;-76
2023/10/12 22:26:59;;;;;;;7.30;5.43;;;21.40;35.90;;;;;;10355085;28;20237;-76
2023/10/12 22:32:02;;;;;;;6.23;5.23;;;21.30;36.20;;;;;;10350233;28;20313;-77
2023/10/12 22:37:10;;;;;;;9.83;5.40;;;21.20;36.10;;;;;;10382217;28;20264;-77
2023/10/12 22:42:14;;;;;;;5.97;4.70;;;21.00;36.10;;;;;;10384035;28;20253;-76
2023/10/12 22:47:18;;;;;;;6.60;4.77;;;21.00;36.70;;;;;;10378311;28;20226;-77
2023/10/12 22:52:21;;;;;;;8.90;5.20;;;20.90;36.60;;;;;;10362179;28;20225;-77
2023/10/12 22:57:26;;;;;;;7.37;5.20;;;20.90;36.70;;;;;;10336986;28;20225;-77
2023/10/12 23:02:34;;;;;;;6.63;5.30;;;20.90;37.10;;;;;;10347588;28;20252;-77
2023/10/12 23:07:38;;;;;;;6.93;5.17;;;20.90;36.70;;;;;;10345115;28;20234;-77
2023/10/12 23:12:43;;;;;;;6.87;4.87;;;20.90;36.60;;;;;;10348971;28;20218;-76
2023/10/12 23:18:00;;;;;;;8.03;4.90;;;20.90;37.20;;;;;;10354782;28;20297;-77
2023/10/12 23:23:10;;;;;;;5.63;4.93;;;20.90;36.80;;;;;;10359406;28;20231;-76
2023/10/12 23:28:17;;;;;;;7.63;5.50;;;20.90;37.00;;;;;;10364709;28;20315;-77
2023/10/12 23:33:22;;;;;;;6.83;5.17;;;20.90;37.30;;;;;;10356292;28;20222;-77
2023/10/12 23:43:58;;;;;;;7.13;5.50;;;20.90;37.20;;;;;;10357121;28;20720;-77
2023/10/12 23:49:21;;;;;;;6.93;5.40;;;20.90;37.30;;;;;;10359605;28;20277;-77
2023/10/12 23:54:33;;;;;;;7.20;5.40;;;20.90;37.30;;;;;;10362274;28;20603;-77
2023/10/12 23:59:38;;;;;;;5.90;5.30;;;20.80;37.20;;;;;;10366909;28;20225;-77
